Catawba Heights, North Carolina
Current Conditions -  °F | °C
As of 2:52 PM on Friday 19 Dec 2014 (Local Time) from KCLT Reporting Station
Overcast Overcast  
Wind Chill: 55°   Ceiling: 23000
Heat Index: 55°   Visibility: 10mi
Dew Point: 28°   Wind: 3mph
Humidity: 35%   Direction: 360°N
Pressure: 30.11"   Gusts: NA
Location:  35.2342°N, 81.041°W
Report Text: KCLT 191952Z 36003KT 10SM OVC230 13/M02 A3011 RMK AO2 SLP196 T01281022
Loading
Personal Weather Stations






























Interactive Weather Map New forecast layout! Learn more

10-Day Weather Forecast

Advertisements
Track Severe Weather on mobile